Time;durP1;ratioP1;P1;durP2;ratioP2;P2;SDS_P1;SDS_P2;PMS_P1;PMS_P2;Temp;Humidity;BMP_temperature;BMP_pressure;BME280_temperature;BME280_humidity;BME280_pressure;Samples;Min_cycle;Max_cycle;Signal;HPM_P1;HPM_P2
2021/04/15 00:00:09;;;;;;;6.80;5.20;;;6.00;13.60;;;;;;5047883;28;20220;-77
2021/04/15 00:02:36;;;;;;;7.22;5.30;;;5.90;13.90;;;;;;5050816;28;20250;-77
2021/04/15 00:05:04;;;;;;;7.87;5.47;;;5.90;14.20;;;;;;5049732;28;20868;-76
2021/04/15 00:07:31;;;;;;;9.07;6.07;;;5.80;14.90;;;;;;5044149;28;20939;-77
2021/04/15 00:09:59;;;;;;;6.15;5.32;;;5.80;15.00;;;;;;5050380;28;21144;-77
2021/04/15 00:12:27;;;;;;;6.33;5.73;;;5.80;26.70;;;;;;5047330;28;20729;-78
2021/04/15 00:14:54;;;;;;;5.83;5.17;;;5.80;14.80;;;;;;5056889;28;20471;-77
2021/04/15 00:17:21;;;;;;;7.07;5.10;;;5.80;14.00;;;;;;5053967;28;20528;-77
2021/04/15 00:19:50;;;;;;;8.67;6.97;;;5.80;13.30;;;;;;5046544;28;20493;-79
2021/04/15 00:22:18;;;;;;;6.43;5.68;;;5.70;13.00;;;;;;5038187;28;20515;-77
2021/04/15 00:24:45;;;;;;;5.72;5.22;;;5.70;13.60;;;;;;5037653;28;20237;-79
2021/04/15 00:27:13;;;;;;;7.38;5.90;;;5.70;12.40;;;;;;5045691;28;20218;-77
2021/04/15 00:29:40;;;;;;;6.28;5.72;;;5.70;11.90;;;;;;5048192;28;20583;-76
2021/04/15 00:32:08;;;;;;;8.68;6.72;;;5.60;11.90;;;;;;5050745;28;20216;-77
2021/04/15 00:34:35;;;;;;;7.10;6.20;;;5.60;11.90;;;;;;5054175;28;20244;-76
2021/04/15 00:37:02;;;;;;;7.13;5.70;;;5.60;12.00;;;;;;5046346;28;20422;-78
2021/04/15 00:39:30;;;;;;;7.63;6.35;;;5.60;12.10;;;;;;5059681;28;20295;-77
2021/04/15 00:41:57;;;;;;;7.97;6.77;;;5.60;11.90;;;;;;5040214;28;20216;-77
2021/04/15 00:44:25;;;;;;;7.60;5.60;;;5.60;12.40;;;;;;5043034;28;21038;-79
2021/04/15 00:46:57;;;;;;;8.95;6.25;;;5.80;12.60;;;;;;5048335;28;20458;-78
2021/04/15 00:49:31;;;;;;;6.65;5.50;;;5.60;13.50;;;;;;5045471;28;20214;-78
2021/04/15 00:52:02;;;;;;;7.97;6.07;;;5.50;11.90;;;;;;5036065;28;20208;-78
2021/04/15 00:54:36;;;;;;;7.03;6.23;;;5.60;12.70;;;;;;5033463;28;20551;-78
2021/04/15 00:57:07;;;;;;;11.63;7.00;;;5.60;12.80;;;;;;5045091;28;20490;-77
2021/04/15 00:59:35;;;;;;;9.20;5.80;;;5.50;12.90;;;;;;5052821;28;20482;-78
2021/04/15 01:02:03;;;;;;;5.87;5.30;;;5.50;14.10;;;;;;5049878;28;20210;-78
2021/04/15 01:04:30;;;;;;;5.60;5.10;;;5.60;14.00;;;;;;5049563;28;20490;-76
2021/04/15 01:06:58;;;;;;;7.32;5.53;;;5.60;13.10;;;;;;5041196;28;20464;-77
2021/04/15 01:09:25;;;;;;;6.60;5.80;;;5.50;12.10;;;;;;5055415;28;20210;-75
2021/04/15 01:12:04;;;;;;;6.38;5.80;;;5.50;12.20;;;;;;5049803;28;20563;-78
2021/04/15 01:14:51;;;;;;;6.50;5.65;;;5.40;11.20;;;;;;5042870;28;20599;-78
2021/04/15 01:17:26;;;;;;;7.87;6.03;;;5.40;11.80;;;;;;5051308;28;20279;-77
2021/04/15 01:20:42;;;;;;;10.80;6.60;;;5.40;11.20;;;;;;5049078;28;20465;-77
2021/04/15 01:23:18;;;;;;;6.32;5.47;;;5.40;10.60;;;;;;5035109;28;20502;-77
2021/04/15 01:26:24;;;;;;;8.70;6.13;;;5.30;9.90;;;;;;5036310;28;20214;-78
2021/04/15 01:29:04;;;;;;;5.87;5.27;;;5.30;9.20;;;;;;5054114;28;20217;-78
2021/04/15 01:31:44;;;;;;;6.30;5.70;;;5.30;10.30;;;;;;5047391;28;20474;-76
2021/04/15 01:34:19;;;;;;;9.63;6.00;;;5.30;9.60;;;;;;5058465;28;20487;-78
2021/04/15 01:37:03;;;;;;;6.03;5.30;;;5.30;10.00;;;;;;5035773;28;20283;-78
2021/04/15 01:39:34;;;;;;;7.90;5.53;;;5.20;9.60;;;;;;5056352;28;20478;-77
2021/04/15 01:42:08;;;;;;;8.43;6.32;;;5.20;9.80;;;;;;5039207;28;20505;-78
2021/04/15 01:44:41;;;;;;;8.40;5.18;;;5.10;9.90;;;;;;5053735;28;20240;-76
2021/04/15 01:47:14;;;;;;;6.30;5.65;;;5.20;9.70;;;;;;5036282;28;20216;-75
2021/04/15 01:49:45;;;;;;;6.43;5.72;;;5.20;9.80;;;;;;5038801;28;20301;-76
2021/04/15 01:52:16;;;;;;;9.45;5.88;;;5.10;9.90;;;;;;5036982;28;20214;-79
2021/04/15 01:54:51;;;;;;;5.70;4.68;;;5.10;9.00;;;;;;5034800;28;20225;-74
2021/04/15 01:57:25;;;;;;;7.90;5.43;;;5.10;8.10;;;;;;5039002;28;20684;-75
2021/04/15 01:59:59;;;;;;;7.90;5.80;;;5.20;8.30;;;;;;5039686;28;20229;-76
2021/04/15 02:02:29;;;;;;;6.13;5.53;;;5.20;7.60;;;;;;5035539;28;20470;-76
2021/04/15 02:05:03;;;;;;;6.27;5.47;;;5.20;7.10;;;;;;5035741;28;20430;-76
2021/04/15 02:07:36;;;;;;;5.53;5.10;;;5.10;6.30;;;;;;5041833;28;20475;-76
2021/04/15 02:10:06;;;;;;;7.47;4.88;;;5.20;6.00;;;;;;5055888;28;20209;-76
2021/04/15 02:12:38;;;;;;;6.03;4.78;;;5.10;5.90;;;;;;5045857;28;20750;-76
2021/04/15 02:15:10;;;;;;;7.88;5.32;;;5.00;5.70;;;;;;5039919;28;20799;-76
2021/04/15 02:17:40;;;;;;;6.50;5.20;;;5.00;4.90;;;;;;5053455;28;20267;-78
2021/04/15 02:20:14;;;;;;;8.52;4.45;;;5.00;6.30;;;;;;5039484;28;20218;-77
2021/04/15 02:22:47;;;;;;;6.37;5.60;;;5.00;6.20;;;;;;5043572;28;20258;-76
2021/04/15 02:25:21;;;;;;;6.20;5.70;;;5.00;6.40;;;;;;5037695;28;20478;-77
2021/04/15 02:27:57;;;;;;;6.93;5.55;;;5.00;6.20;;;;;;5046209;28;20217;-77
2021/04/15 02:30:28;;;;;;;6.38;5.35;;;4.90;5.00;;;;;;5053021;28;20206;-79
2021/04/15 02:33:01;;;;;;;6.10;4.95;;;4.80;5.00;;;;;;5054883;28;20224;-77
2021/04/15 02:35:33;;;;;;;5.65;4.55;;;4.80;4.90;;;;;;5049433;28;20214;-77
2021/04/15 02:38:02;;;;;;;5.82;5.15;;;4.90;6.20;;;;;;5067445;28;20217;-77
2021/04/15 02:40:31;;;;;;;5.38;4.88;;;4.90;5.10;;;;;;5050316;28;20803;-77
2021/04/15 02:43:02;;;;;;;9.25;5.18;;;4.80;4.20;;;;;;5053111;28;20235;-76
2021/04/15 02:45:37;;;;;;;5.95;5.28;;;4.80;3.20;;;;;;5054042;28;20478;-77
2021/04/15 02:48:08;;;;;;;5.47;4.97;;;4.80;4.10;;;;;;5046739;28;20202;-75
2021/04/15 02:50:36;;;;;;;5.00;4.40;;;4.70;2.80;;;;;;5048397;28;20229;-76
2021/04/15 02:53:10;;;;;;;6.75;4.57;;;4.70;1.90;;;;;;5049731;28;20234;-76
2021/04/15 02:55:44;;;;;;;6.47;5.32;;;4.60;3.20;;;;;;5038768;28;20264;-78
2021/04/15 02:58:19;;;;;;;5.67;5.17;;;4.60;4.50;;;;;;5060517;28;20279;-78
2021/04/15 03:00:51;;;;;;;5.90;5.00;;;4.70;4.70;;;;;;5050953;28;20465;-77
2021/04/15 03:03:21;;;;;;;6.22;5.22;;;4.70;5.00;;;;;;5053239;28;20475;-78
2021/04/15 03:05:53;;;;;;;7.55;5.93;;;4.90;5.50;;;;;;5053889;28;20207;-78
2021/04/15 03:08:27;;;;;;;23.02;10.35;;;4.70;5.00;;;;;;5045092;28;20219;-77
2021/04/15 03:10:59;;;;;;;12.20;6.93;;;4.50;2.70;;;;;;5047272;28;20289;-75
2021/04/15 03:13:32;;;;;;;7.65;5.95;;;4.30;4.90;;;;;;5047649;28;20236;-75
2021/04/15 03:16:04;;;;;;;11.15;6.82;;;4.30;7.70;;;;;;5041303;28;20242;-76
2021/04/15 03:18:37;;;;;;;9.05;6.07;;;4.40;6.40;;;;;;5043906;28;20219;-78
2021/04/15 03:21:14;;;;;;;9.55;5.70;;;4.50;6.60;;;;;;5043806;28;20668;-77
2021/04/15 03:23:52;;;;;;;6.78;5.63;;;4.50;6.80;;;;;;5041284;28;20238;-75
2021/04/15 03:26:40;;;;;;;5.75;5.07;;;4.60;7.10;;;;;;5044580;28;20205;-76
2021/04/15 03:29:20;;;;;;;8.15;5.95;;;4.50;6.10;;;;;;5058542;28;20584;-76
2021/04/15 03:31:52;;;;;;;6.93;4.93;;;4.50;6.40;;;;;;5044021;28;20211;-78
2021/04/15 03:34:27;;;;;;;6.00;5.32;;;4.50;5.40;;;;;;5055635;28;20271;-77
2021/04/15 03:36:57;;;;;;;5.20;4.70;;;4.50;4.40;;;;;;5043680;28;20718;-77
2021/04/15 03:39:31;;;;;;;6.00;5.40;;;4.50;4.20;;;;;;5054651;28;20757;-77
2021/04/15 03:42:07;;;;;;;5.50;5.05;;;4.40;2.90;;;;;;5056754;28;20215;-77
2021/04/15 03:44:39;;;;;;;6.10;5.60;;;4.40;2.50;;;;;;5045184;28;20329;-76
2021/04/15 03:47:11;;;;;;;7.72;4.97;;;4.40;3.40;;;;;;5059420;28;20235;-77
2021/04/15 03:49:43;;;;;;;7.30;6.05;;;4.40;14.70;;;;;;5046760;28;20683;-77
2021/04/15 03:52:16;;;;;;;6.57;5.80;;;4.40;3.10;;;;;;5038772;28;20915;-74
2021/04/15 03:54:48;;;;;;;7.68;5.47;;;4.40;3.10;;;;;;5042865;28;20273;-77
2021/04/15 03:57:20;;;;;;;6.72;5.90;;;4.40;3.90;;;;;;5041547;28;20233;-74
2021/04/15 03:59:54;;;;;;;6.15;5.60;;;4.40;3.70;;;;;;5051719;28;20887;-77
2021/04/15 04:02:29;;;;;;;8.70;5.63;;;4.40;3.30;;;;;;5047430;28;20222;-77
2021/04/15 04:05:02;;;;;;;7.45;5.32;;;4.40;3.90;;;;;;5055150;28;20220;-76
2021/04/15 04:07:35;;;;;;;7.65;5.07;;;4.50;3.60;;;;;;5043224;28;20215;-77
2021/04/15 04:10:07;;;;;;;7.47;5.88;;;4.50;2.50;;;;;;5052420;28;20216;-80
2021/04/15 04:12:40;;;;;;;6.15;5.00;;;4.40;1.50;;;;;;5051760;28;20213;-78
2021/04/15 04:15:12;;;;;;;5.97;5.47;;;4.40;1.00;;;;;;5046874;28;20205;-75
2021/04/15 04:17:45;;;;;;;5.72;4.28;;;4.30;1.00;;;;;;5061390;28;20273;-77
2021/04/15 04:20:13;;;;;;;6.65;5.00;;;4.30;1.00;;;;;;5048176;28;20227;-78
2021/04/15 04:22:49;;;;;;;8.95;6.25;;;4.30;1.00;;;;;;5039796;28;20215;-74
2021/04/15 04:25:23;;;;;;;9.75;5.80;;;4.30;1.30;;;;;;5039451;28;20227;-75
2021/04/15 04:27:57;;;;;;;7.53;5.47;;;4.30;1.00;;;;;;5051462;28;20191;-77
2021/04/15 04:30:29;;;;;;;8.45;5.50;;;4.30;1.00;;;;;;5053771;28;20207;-76
2021/04/15 04:33:01;;;;;;;7.22;5.65;;;4.30;1.00;;;;;;5056118;28;20320;-77
2021/04/15 04:35:41;;;;;;;7.40;5.95;;;4.30;1.00;;;;;;5046803;28;20210;-76
2021/04/15 04:38:15;;;;;;;6.72;6.13;;;4.30;1.10;;;;;;5042746;28;20211;-77
2021/04/15 04:40:50;;;;;;;8.32;6.22;;;4.30;2.20;;;;;;5046392;28;20215;-76
2021/04/15 04:43:23;;;;;;;5.75;5.25;;;4.20;1.50;;;;;;5043588;28;20242;-76
2021/04/15 04:45:56;;;;;;;11.02;10.00;;;4.20;1.70;;;;;;5045790;28;20206;-78
2021/04/15 04:48:30;;;;;;;8.65;7.85;;;4.10;1.00;;;;;;5058648;28;20207;-76
2021/04/15 04:51:03;;;;;;;8.43;7.07;;;4.10;1.50;;;;;;5036712;28;20747;-76
2021/04/15 04:53:33;;;;;;;7.45;6.30;;;4.10;1.20;;;;;;5040732;28;20242;-76
2021/04/15 04:56:25;;;;;;;10.82;6.72;;;4.20;2.10;;;;;;5040944;28;20239;-77
2021/04/15 04:58:55;;;;;;;14.20;7.20;;;4.20;2.00;;;;;;5044758;28;20211;-78
2021/04/15 05:01:22;;;;;;;10.25;7.47;;;4.20;1.00;;;;;;5040870;28;20292;-76
2021/04/15 05:03:57;;;;;;;7.45;6.72;;;4.20;1.00;;;;;;5048787;28;20223;-78
2021/04/15 05:06:27;;;;;;;7.38;6.15;;;4.20;1.00;;;;;;5048271;28;20203;-78
2021/04/15 05:08:59;;;;;;;7.20;6.60;;;4.10;1.00;;;;;;5046124;28;20213;-78
2021/04/15 05:11:29;;;;;;;6.97;6.20;;;4.10;1.90;;;;;;5048884;28;20783;-77
2021/04/15 05:13:57;;;;;;;6.75;6.05;;;4.20;1.10;;;;;;5047537;28;20222;-78
2021/04/15 05:16:29;;;;;;;8.07;6.13;;;4.30;2.80;;;;;;5043745;28;20228;-78
2021/04/15 05:18:57;;;;;;;8.68;6.90;;;4.20;2.80;;;;;;5051072;28;20288;-77
2021/04/15 05:21:27;;;;;;;8.18;6.03;;;4.30;4.30;;;;;;5044743;28;20207;-78
2021/04/15 05:23:59;;;;;;;7.72;6.10;;;4.20;3.70;;;;;;5034006;28;20238;-78
2021/04/15 05:26:32;;;;;;;8.13;7.18;;;4.20;3.60;;;;;;5040590;28;20214;-75
2021/04/15 05:29:02;;;;;;;9.15;7.30;;;4.30;3.40;;;;;;5045484;28;20214;-78
2021/04/15 05:31:32;;;;;;;12.65;6.90;;;4.30;4.20;;;;;;5046600;28;20692;-78
2021/04/15 05:34:02;;;;;;;8.88;7.57;;;4.20;5.20;;;;;;5042560;28;20239;-79
2021/04/15 05:36:32;;;;;;;11.68;8.00;;;4.20;5.30;;;;;;5043622;28;20229;-78
2021/04/15 05:39:04;;;;;;;8.45;6.78;;;4.20;17.50;;;;;;5042086;28;20211;-78
2021/04/15 05:41:40;;;;;;;9.10;7.03;;;4.10;8.10;;;;;;5045862;28;20218;-78
2021/04/15 05:44:14;;;;;;;7.70;6.90;;;4.10;8.60;;;;;;5045930;28;20244;-79
2021/04/15 05:46:44;;;;;;;16.50;6.45;;;4.20;9.60;;;;;;5048505;28;20225;-78
2021/04/15 05:49:17;;;;;;;8.75;6.93;;;4.20;10.10;;;;;;5051125;28;20315;-80
2021/04/15 05:51:48;;;;;;;7.18;6.47;;;4.30;10.80;;;;;;5045898;28;20215;-79
2021/04/15 05:54:17;;;;;;;11.40;7.60;;;4.30;12.00;;;;;;5050038;28;20765;-78
2021/04/15 05:56:59;;;;;;;9.57;6.05;;;4.30;13.10;;;;;;5042912;28;20321;-77
2021/04/15 05:59:41;;;;;;;5.20;4.70;;;4.30;16.20;;;;;;5031664;28;20691;-79
2021/04/15 06:02:20;;;;;;;6.47;5.45;;;4.30;18.00;;;;;;5049684;28;20219;-77
2021/04/15 06:04:55;;;;;;;5.80;5.30;;;4.40;20.30;;;;;;5035584;28;20248;-77
2021/04/15 06:07:25;;;;;;;10.15;4.75;;;4.30;22.60;;;;;;5037704;28;20211;-78
2021/04/15 06:09:53;;;;;;;6.88;4.95;;;4.40;23.10;;;;;;5032497;28;20660;-78
2021/04/15 06:12:30;;;;;;;6.22;5.13;;;4.50;22.90;;;;;;5039063;28;20241;-79
2021/04/15 06:15:02;;;;;;;6.57;5.47;;;4.50;26.70;;;;;;5041928;28;20306;-78
2021/04/15 06:17:43;;;;;;;7.10;4.60;;;4.60;33.10;;;;;;5041118;28;20215;-78
2021/04/15 06:20:15;;;;;;;7.10;4.10;;;4.90;32.10;;;;;;5039882;28;20257;-78
2021/04/15 06:22:45;;;;;;;5.50;4.07;;;5.00;32.20;;;;;;5038777;28;20214;-78
2021/04/15 06:25:17;;;;;;;5.20;4.55;;;5.40;30.40;;;;;;5035011;28;20575;-78
2021/04/15 06:27:46;;;;;;;4.22;3.78;;;5.40;25.70;;;;;;5038762;28;20671;-78
2021/04/15 06:30:19;;;;;;;5.53;5.05;;;5.50;23.40;;;;;;5061264;28;20219;-77
2021/04/15 06:32:50;;;;;;;5.13;4.13;;;5.70;22.20;;;;;;5055838;28;20239;-78
2021/04/15 06:35:21;;;;;;;4.33;3.93;;;5.80;22.40;;;;;;5048835;28;20827;-78
2021/04/15 06:37:53;;;;;;;4.65;4.15;;;5.90;22.00;;;;;;5055612;28;20521;-76
2021/04/15 06:40:53;;;;;;;4.53;3.80;;;6.00;21.30;;;;;;5054305;28;20696;-78
2021/04/15 06:44:20;;;;;;;6.40;3.77;;;6.30;23.60;;;;;;5054389;28;20887;-78
2021/04/15 06:47:19;;;;;;;4.53;3.60;;;6.50;22.60;;;;;;4989602;28;20943;-77
2021/04/15 06:50:08;;;;;;;3.40;2.80;;;6.80;22.70;;;;;;5037641;28;20634;-79
2021/04/15 06:52:46;;;;;;;5.43;3.33;;;6.90;18.30;;;;;;5052289;28;20487;-81
2021/04/15 06:55:27;;;;;;;7.20;3.37;;;7.00;16.40;;;;;;5052705;28;20555;-77
2021/04/15 06:58:25;;;;;;;4.40;2.90;;;7.10;15.40;;;;;;5049655;28;20546;-80
2021/04/15 07:01:06;;;;;;;6.93;2.80;;;7.30;14.70;;;;;;5050753;28;20577;-80
2021/04/15 07:04:00;;;;;;;3.40;2.63;;;7.40;16.30;;;;;;5057444;28;20562;-79
2021/04/15 07:06:48;;;;;;;5.67;3.87;;;7.60;14.70;;;;;;5053855;28;20601;-79
2021/04/15 07:09:34;;;;;;;3.20;2.90;;;7.80;13.60;;;;;;5049057;28;20469;-79
2021/04/15 07:12:39;;;;;;;3.30;3.00;;;8.30;13.80;;;;;;5049934;28;21088;-79
2021/04/15 07:15:23;;;;;;;2.93;2.13;;;8.10;14.50;;;;;;5033592;28;20548;-78
2021/04/15 07:18:05;;;;;;;3.27;2.40;;;8.30;14.00;;;;;;5050066;28;20574;-77
2021/04/15 07:21:09;;;;;;;3.80;2.77;;;8.50;14.20;;;;;;5047711;28;20559;-77
2021/04/15 07:24:10;;;;;;;3.50;2.20;;;8.60;10.80;;;;;;5013555;28;20770;-78
2021/04/15 07:27:19;;;;;;;5.83;2.43;;;8.70;10.80;;;;;;5048936;28;20456;-79
2021/04/15 07:30:16;;;;;;;4.53;2.30;;;8.90;10.60;;;;;;5044975;28;20471;-78
2021/04/15 07:33:01;;;;;;;4.30;2.27;;;9.00;10.60;;;;;;5047371;28;20801;-77
2021/04/15 07:35:39;;;;;;;2.50;2.07;;;9.20;9.70;;;;;;5045465;28;20952;-77
2021/04/15 07:38:30;;;;;;;2.23;2.03;;;9.20;10.20;;;;;;5051948;28;20489;-75
2021/04/15 07:41:25;;;;;;;4.90;2.80;;;9.40;13.10;;;;;;5054537;28;20491;-76
2021/04/15 07:44:23;;;;;;;3.90;3.60;;;9.60;8.00;;;;;;5052329;28;20572;-76
2021/04/15 07:47:08;;;;;;;3.50;3.03;;;9.70;5.60;;;;;;5042888;28;20552;-79
2021/04/15 07:50:01;;;;;;;6.30;2.30;;;10.00;5.40;;;;;;5045107;28;20446;-78
2021/04/15 07:53:07;;;;;;;3.10;2.43;;;9.80;5.30;;;;;;5051088;28;20896;-77
2021/04/15 07:55:53;;;;;;;2.60;2.40;;;10.00;4.20;;;;;;5033465;28;20482;-77
2021/04/15 07:58:41;;;;;;;3.90;3.60;;;10.10;2.70;;;;;;5039082;28;20476;-77
2021/04/15 08:01:41;;;;;;;3.77;2.60;;;10.10;2.80;;;;;;5066263;28;20473;-77
2021/04/15 08:04:51;;;;;;;5.13;3.00;;;9.90;1.10;;;;;;5053332;28;20560;-80
2021/04/15 08:07:42;;;;;;;3.30;2.80;;;9.90;1.00;;;;;;5042297;28;20468;-78
2021/04/15 08:10:44;;;;;;;3.70;2.90;;;9.70;1.00;;;;;;5053260;28;20811;-79
2021/04/15 08:13:55;;;;;;;3.40;2.73;;;9.70;1.00;;;;;;5029989;28;20497;-77
2021/04/15 08:16:39;;;;;;;3.27;3.00;;;9.70;1.00;;;;;;5045417;28;20512;-76
2021/04/15 08:19:33;;;;;;;2.80;2.47;;;9.60;1.00;;;;;;5051283;28;20464;-77
2021/04/15 08:22:08;;;;;;;3.20;2.90;;;9.60;1.00;;;;;;5047121;28;20468;-77
2021/04/15 08:24:50;;;;;;;9.67;2.90;;;9.70;1.00;;;;;;5055081;28;20556;-80
2021/04/15 08:27:59;;;;;;;2.70;2.43;;;9.70;1.00;;;;;;5045467;28;20481;-79
2021/04/15 08:30:51;;;;;;;4.70;2.90;;;9.80;1.00;;;;;;5049848;28;20459;-78
2021/04/15 08:33:36;;;;;;;7.40;4.33;;;9.90;1.00;;;;;;5044512;28;20478;-78
2021/04/15 08:36:30;;;;;;;4.47;2.37;;;10.00;1.00;;;;;;5047173;28;20807;-77
2021/04/15 08:39:23;;;;;;;2.37;2.20;;;10.10;1.00;;;;;;5045710;28;20848;-76
2021/04/15 08:41:58;;;;;;;3.03;2.73;;;10.10;1.00;;;;;;5048337;28;20532;-77
2021/04/15 08:44:42;;;;;;;3.17;2.00;;;10.20;1.00;;;;;;5042809;28;21517;-77
2021/04/15 08:47:20;;;;;;;2.50;2.30;;;10.10;1.00;;;;;;5047280;28;20470;-75
2021/04/15 08:50:00;;;;;;;4.40;2.27;;;10.20;1.00;;;;;;5048558;28;21000;-76
2021/04/15 08:52:40;;;;;;;2.70;2.10;;;10.10;1.00;;;;;;5046458;28;20454;-77
2021/04/15 08:55:23;;;;;;;2.40;2.20;;;10.20;1.00;;;;;;5055404;28;20475;-77
2021/04/15 08:58:06;;;;;;;1.77;1.60;;;10.20;1.00;;;;;;5050213;28;20592;-76
2021/04/15 09:00:41;;;;;;;2.37;1.90;;;10.30;1.00;;;;;;5047017;28;20573;-77
2021/04/15 09:03:26;;;;;;;4.20;2.70;;;10.40;1.00;;;;;;5046599;28;20535;-76
2021/04/15 09:06:13;;;;;;;2.10;1.80;;;10.40;1.00;;;;;;5049880;28;20452;-78
2021/04/15 09:08:53;;;;;;;3.83;3.10;;;10.50;1.00;;;;;;5048903;28;20482;-75
2021/04/15 09:11:30;;;;;;;2.20;1.90;;;10.60;1.00;;;;;;5045142;28;20875;-77
2021/04/15 09:14:03;;;;;;;2.10;1.70;;;10.60;1.00;;;;;;5050364;28;20539;-78
2021/04/15 09:16:38;;;;;;;1.73;1.60;;;10.50;1.00;;;;;;5047490;28;20470;-75
2021/04/15 09:19:32;;;;;;;1.40;1.30;;;10.30;1.00;;;;;;5046179;28;20468;-76
2021/04/15 09:22:12;;;;;;;2.27;1.80;;;10.50;1.00;;;;;;5043392;28;20478;-76
2021/04/15 09:24:43;;;;;;;4.17;2.10;;;10.50;1.00;;;;;;5046775;28;20481;-76
2021/04/15 09:27:25;;;;;;;2.60;2.10;;;10.50;1.00;;;;;;5047627;28;20518;-76
2021/04/15 09:30:01;;;;;;;2.57;1.97;;;10.40;1.00;;;;;;5049231;28;20533;-77
2021/04/15 09:32:52;;;;;;;3.10;1.60;;;10.50;1.00;;;;;;5053206;28;20454;-76
2021/04/15 09:35:34;;;;;;;3.03;1.57;;;10.50;1.00;;;;;;5045716;28;20447;-76
2021/04/15 09:38:23;;;;;;;5.63;2.43;;;10.70;1.00;;;;;;5051976;28;20952;-75
2021/04/15 09:41:32;;;;;;;2.53;1.70;;;10.80;1.00;;;;;;5043419;28;20455;-76
2021/04/15 09:44:11;;;;;;;3.70;2.07;;;10.90;1.00;;;;;;4996483;28;20503;-77
2021/04/15 09:46:51;;;;;;;4.40;2.10;;;11.00;1.00;;;;;;5045740;28;20453;-76
2021/04/15 09:49:34;;;;;;;3.10;2.00;;;11.00;1.00;;;;;;5051208;28;20549;-77
2021/04/15 09:52:19;;;;;;;10.83;2.90;;;10.90;1.00;;;;;;5046004;28;20464;-76
2021/04/15 09:54:58;;;;;;;1.83;1.60;;;11.00;1.00;;;;;;5040473;28;20484;-76
2021/04/15 09:57:33;;;;;;;4.53;1.57;;;11.00;1.00;;;;;;5044586;28;20553;-75
2021/04/15 10:00:16;;;;;;;2.17;1.30;;;11.10;1.00;;;;;;5046248;28;20490;-76
2021/04/15 10:02:53;;;;;;;2.27;1.80;;;11.30;1.00;;;;;;5045887;28;20529;-75
2021/04/15 10:05:49;;;;;;;1.73;1.63;;;11.50;1.00;;;;;;5045340;28;20475;-75
2021/04/15 10:08:26;;;;;;;4.60;2.00;;;11.50;1.00;;;;;;5040524;28;20470;-76
2021/04/15 10:11:01;;;;;;;1.70;1.50;;;11.50;1.00;;;;;;5047561;28;20460;-78
2021/04/15 10:13:42;;;;;;;4.90;1.93;;;11.50;1.00;;;;;;5044010;28;20481;-77
2021/04/15 10:16:20;;;;;;;2.27;1.73;;;11.60;1.00;;;;;;5053407;28;20499;-79
2021/04/15 10:19:13;;;;;;;2.13;1.97;;;11.50;1.00;;;;;;5046308;28;20490;-79
2021/04/15 10:21:50;;;;;;;3.73;1.90;;;11.40;1.00;;;;;;5056888;28;20800;-79
2021/04/15 10:24:34;;;;;;;7.00;2.60;;;11.40;1.00;;;;;;5048659;28;20481;-78
2021/04/15 10:27:44;;;;;;;1.70;1.60;;;11.40;1.00;;;;;;5047957;28;20456;-77
2021/04/15 10:30:34;;;;;;;3.67;1.77;;;11.30;1.00;;;;;;5051841;28;20463;-77
2021/04/15 10:33:39;;;;;;;2.50;1.50;;;11.20;1.00;;;;;;5052557;28;20487;-78
2021/04/15 10:36:45;;;;;;;2.83;1.60;;;11.30;1.00;;;;;;5052445;28;20478;-79
2021/04/15 10:39:32;;;;;;;2.20;2.00;;;11.40;1.00;;;;;;5033609;28;20473;-77
2021/04/15 10:42:31;;;;;;;2.33;2.10;;;11.40;1.00;;;;;;5042318;28;20451;-78
2021/04/15 10:45:32;;;;;;;3.40;1.57;;;11.40;1.00;;;;;;5044668;28;20468;-76
2021/04/15 10:48:10;;;;;;;2.33;1.57;;;11.40;1.00;;;;;;5046673;28;20472;-77
2021/04/15 10:50:53;;;;;;;2.13;1.80;;;11.40;1.00;;;;;;5042888;28;20473;-77
2021/04/15 10:53:51;;;;;;;2.07;1.63;;;11.40;1.00;;;;;;5042288;28;20533;-76
2021/04/15 10:56:50;;;;;;;2.23;1.77;;;11.40;1.00;;;;;;5029357;28;20462;-76
2021/04/15 10:59:32;;;;;;;2.47;2.00;;;11.30;1.00;;;;;;5010464;28;20512;-76
2021/04/15 11:02:46;;;;;;;2.03;1.70;;;11.30;1.00;;;;;;5047009;28;20513;-75
2021/04/15 11:05:21;;;;;;;5.00;1.90;;;11.30;1.00;;;;;;5055976;28;20462;-76
2021/04/15 11:07:51;;;;;;;3.23;1.60;;;11.20;1.00;;;;;;5046187;28;20450;-78
2021/04/15 11:10:26;;;;;;;2.73;2.03;;;10.90;1.00;;;;;;5046828;28;20511;-76
2021/04/15 11:13:11;;;;;;;5.23;2.70;;;10.80;1.00;;;;;;5049708;28;20499;-76
2021/04/15 11:15:43;;;;;;;6.70;3.57;;;10.80;1.00;;;;;;5053429;28;20469;-77
2021/04/15 11:18:13;;;;;;;3.30;1.80;;;10.80;1.00;;;;;;5052359;28;20498;-74
2021/04/15 11:20:42;;;;;;;2.20;2.00;;;10.70;1.00;;;;;;5051697;28;20478;-76
2021/04/15 11:23:32;;;;;;;2.58;1.80;;;10.60;1.00;;;;;;5043706;28;20513;-76
2021/04/15 11:26:17;;;;;;;1.83;1.73;;;10.70;1.00;;;;;;5049643;28;20693;-76
2021/04/15 11:28:45;;;;;;;4.00;2.00;;;10.80;1.00;;;;;;5053734;28;20478;-76
2021/04/15 11:31:35;;;;;;;2.43;1.50;;;10.80;1.00;;;;;;5057640;28;20470;-76
2021/04/15 11:34:19;;;;;;;3.33;1.77;;;11.00;1.00;;;;;;5063273;28;20572;-76
2021/04/15 11:37:06;;;;;;;1.90;1.70;;;11.10;1.00;;;;;;5059246;28;20835;-76
2021/04/15 11:39:37;;;;;;;2.70;2.07;;;11.30;1.00;;;;;;5056185;28;20463;-78
2021/04/15 11:42:07;;;;;;;2.93;1.73;;;11.30;1.00;;;;;;5053779;28;21057;-77
2021/04/15 11:44:39;;;;;;;1.80;1.70;;;11.30;1.00;;;;;;5049952;28;20496;-77
2021/04/15 11:47:12;;;;;;;2.73;2.53;;;11.20;1.00;;;;;;5050304;28;20463;-77
2021/04/15 11:49:42;;;;;;;2.43;2.23;;;10.90;1.00;;;;;;5049764;28;20457;-77
2021/04/15 11:52:28;;;;;;;1.60;1.50;;;10.60;1.00;;;;;;5052274;28;20481;-76
2021/04/15 11:55:22;;;;;;;3.53;1.80;;;10.80;1.00;;;;;;5057823;28;20475;-78
2021/04/15 11:57:59;;;;;;;1.80;1.70;;;11.00;1.00;;;;;;5041306;28;20491;-77
2021/04/15 12:00:30;;;;;;;1.40;1.30;;;11.20;1.00;;;;;;5047184;28;20570;-78
2021/04/15 12:03:14;;;;;;;4.70;1.60;;;11.30;1.00;;;;;;5050998;28;20767;-78
2021/04/15 12:05:43;;;;;;;2.03;1.60;;;11.40;1.00;;;;;;5055222;28;21062;-76
2021/04/15 12:08:17;;;;;;;5.32;2.60;;;11.30;1.00;;;;;;5046823;28;20471;-77
2021/04/15 12:10:48;;;;;;;2.00;1.80;;;11.20;1.00;;;;;;5051736;28;20276;-75
2021/04/15 12:13:20;;;;;;;2.07;1.87;;;11.30;1.00;;;;;;5047513;28;20543;-78
2021/04/15 12:15:55;;;;;;;2.03;1.60;;;11.20;1.00;;;;;;5048291;28;21148;-76
2021/04/15 12:18:29;;;;;;;2.57;1.53;;;11.30;1.00;;;;;;5044456;28;20479;-76
2021/04/15 12:21:04;;;;;;;3.00;2.80;;;11.10;1.00;;;;;;5040473;28;20546;-76
2021/04/15 12:23:40;;;;;;;1.50;1.40;;;11.20;1.00;;;;;;5046374;28;20537;-76
2021/04/15 12:26:40;;;;;;;2.80;1.67;;;11.20;1.00;;;;;;5066830;28;20555;-76
2021/04/15 12:29:14;;;;;;;2.90;1.60;;;11.30;1.00;;;;;;5057729;28;21382;-75
2021/04/15 12:31:48;;;;;;;1.60;1.50;;;11.50;1.00;;;;;;5051038;28;20465;-75
2021/04/15 12:34:38;;;;;;;1.40;1.30;;;11.50;1.00;;;;;;5049854;28;20480;-76
2021/04/15 12:37:16;;;;;;;2.70;1.50;;;11.50;1.00;;;;;;5056475;28;20477;-76
2021/04/15 12:39:51;;;;;;;1.50;1.40;;;11.40;1.00;;;;;;5051573;28;20491;-76
2021/04/15 12:42:23;;;;;;;2.93;2.30;;;11.30;1.00;;;;;;5055855;28;20579;-76
2021/04/15 12:44:53;;;;;;;1.73;1.50;;;11.30;1.00;;;;;;5052114;28;20457;-76
2021/04/15 12:47:21;;;;;;;2.50;1.37;;;11.20;1.00;;;;;;5046239;28;20472;-77
2021/04/15 12:49:48;;;;;;;1.70;1.60;;;11.40;1.00;;;;;;5051438;28;20456;-79
2021/04/15 12:52:16;;;;;;;1.60;1.50;;;11.50;1.00;;;;;;5046262;28;20464;-78
2021/04/15 12:54:44;;;;;;;1.47;1.37;;;11.60;1.00;;;;;;5056803;28;20492;-77
2021/04/15 12:57:13;;;;;;;1.30;1.20;;;11.70;1.00;;;;;;5042507;28;20697;-77
2021/04/15 12:59:45;;;;;;;1.67;1.57;;;11.70;1.00;;;;;;5050560;28;20460;-76
2021/04/15 13:02:19;;;;;;;3.13;1.30;;;11.70;1.00;;;;;;5051163;28;20473;-76
2021/04/15 13:04:50;;;;;;;1.50;1.40;;;11.70;1.00;;;;;;5050429;28;21053;-77
2021/04/15 13:07:31;;;;;;;1.50;1.40;;;11.70;1.00;;;;;;5050837;28;20778;-78
2021/04/15 13:10:27;;;;;;;1.33;1.23;;;11.80;1.00;;;;;;5051659;28;20468;-74
2021/04/15 13:12:55;;;;;;;2.13;1.20;;;11.80;1.00;;;;;;5044513;28;20495;-75
2021/04/15 13:15:43;;;;;;;1.30;1.20;;;11.80;1.00;;;;;;5048011;28;20473;-76
2021/04/15 13:18:34;;;;;;;3.80;1.50;;;11.80;1.00;;;;;;5046853;28;20508;-76
2021/04/15 13:21:08;;;;;;;2.43;1.30;;;11.90;1.00;;;;;;5048137;28;20551;-77
2021/04/15 13:23:44;;;;;;;2.13;1.90;;;12.10;1.00;;;;;;5048882;28;20481;-74
2021/04/15 13:26:30;;;;;;;1.60;1.50;;;12.20;1.00;;;;;;5043756;28;20497;-77
2021/04/15 13:29:24;;;;;;;3.30;1.40;;;12.20;1.00;;;;;;5049304;28;20458;-79
2021/04/15 13:31:57;;;;;;;1.80;1.30;;;12.10;1.00;;;;;;5049275;28;20473;-75
2021/04/15 13:34:26;;;;;;;2.90;1.80;;;12.00;1.00;;;;;;5052611;28;20476;-75
2021/04/15 13:37:34;;;;;;;1.70;1.60;;;11.90;1.00;;;;;;5048598;28;20873;-77
2021/04/15 13:40:23;;;;;;;1.70;1.60;;;12.00;1.00;;;;;;5051231;28;20519;-77
2021/04/15 13:42:57;;;;;;;1.90;1.80;;;11.90;1.00;;;;;;5052195;28;20594;-76
2021/04/15 13:45:40;;;;;;;2.23;2.00;;;11.70;1.00;;;;;;5039421;28;20460;-77
2021/04/15 13:48:10;;;;;;;3.17;1.80;;;11.70;1.00;;;;;;5050604;28;20457;-77
2021/04/15 13:51:06;;;;;;;3.03;1.93;;;11.60;1.00;;;;;;5051685;28;21116;-78
2021/04/15 13:53:49;;;;;;;3.63;2.10;;;11.50;1.00;;;;;;5047580;28;20553;-76
2021/04/15 13:56:53;;;;;;;2.87;1.67;;;11.40;1.00;;;;;;5051320;28;20992;-74
2021/04/15 13:59:46;;;;;;;2.17;1.83;;;11.30;1.00;;;;;;5032610;28;20500;-77